sensor_id;sensor_type;location;lat;lon;timestamp;P1;P2;P0
76238;PMS7003;65043;48.392;-4.472;2023-03-16T00:00:22;1.00;1.00;0.00
76238;PMS7003;65043;48.392;-4.472;2023-03-16T00:02:48;3.00;1.00;0.00
76238;PMS7003;65043;48.392;-4.472;2023-03-16T00:05:14;1.75;1.25;1.00
76238;PMS7003;65043;48.392;-4.472;2023-03-16T00:07:39;1.50;1.50;0.00
76238;PMS7003;65043;48.392;-4.472;2023-03-16T00:10:09;1.00;1.00;0.00
76238;PMS7003;65043;48.392;-4.472;2023-03-16T00:12:36;0.00;0.00;0.00
76238;PMS7003;65043;48.392;-4.472;2023-03-16T00:15:02;0.00;0.00;0.00
76238;PMS7003;65043;48.392;-4.472;2023-03-16T00:17:28;2.00;2.00;0.00
76238;PMS7003;65043;48.392;-4.472;2023-03-16T00:19:54;4.50;1.00;0.00
76238;PMS7003;65043;48.392;-4.472;2023-03-16T00:22:28;2.00;0.00;0.00
76238;PMS7003;65043;48.392;-4.472;2023-03-16T00:24:54;2.25;0.75;0.50
76238;PMS7003;65043;48.392;-4.472;2023-03-16T00:27:21;1.00;1.00;1.00
76238;PMS7003;65043;48.392;-4.472;2023-03-16T00:29:48;4.00;0.75;0.25
76238;PMS7003;65043;48.392;-4.472;2023-03-16T00:32:20;1.25;1.00;1.00
76238;PMS7003;65043;48.392;-4.472;2023-03-16T00:34:47;2.00;1.00;0.75
76238;PMS7003;65043;48.392;-4.472;2023-03-16T00:37:14;1.25;1.00;0.00
76238;PMS7003;65043;48.392;-4.472;2023-03-16T00:39:41;1.00;1.00;0.50
76238;PMS7003;65043;48.392;-4.472;2023-03-16T00:42:08;1.75;0.25;0.00
76238;PMS7003;65043;48.392;-4.472;2023-03-16T00:44:35;3.00;1.75;0.00
76238;PMS7003;65043;48.392;-4.472;2023-03-16T00:47:01;4.25;0.25;0.00
76238;PMS7003;65043;48.392;-4.472;2023-03-16T00:49:27;2.25;2.00;1.25
76238;PMS7003;65043;48.392;-4.472;2023-03-16T00:51:52;4.00;2.00;0.00
76238;PMS7003;65043;48.392;-4.472;2023-03-16T00:54:18;3.00;1.00;0.25
76238;PMS7003;65043;48.392;-4.472;2023-03-16T00:56:44;2.25;1.25;1.00
76238;PMS7003;65043;48.392;-4.472;2023-03-16T00:59:09;3.25;1.00;0.00
76238;PMS7003;65043;48.392;-4.472;2023-03-16T01:01:36;2.25;2.25;1.00
76238;PMS7003;65043;48.392;-4.472;2023-03-16T01:04:02;2.00;2.00;1.00
76238;PMS7003;65043;48.392;-4.472;2023-03-16T01:06:27;2.25;0.00;0.00
76238;PMS7003;65043;48.392;-4.472;2023-03-16T01:08:53;2.00;1.50;0.00
76238;PMS7003;65043;48.392;-4.472;2023-03-16T01:11:20;1.75;1.25;0.75
76238;PMS7003;65043;48.392;-4.472;2023-03-16T01:13:47;3.50;2.00;1.00
76238;PMS7003;65043;48.392;-4.472;2023-03-16T01:16:14;1.00;1.00;0.25
76238;PMS7003;65043;48.392;-4.472;2023-03-16T01:18:43;2.75;1.25;1.00
76238;PMS7003;65043;48.392;-4.472;2023-03-16T01:21:09;4.75;2.00;1.00
76238;PMS7003;65043;48.392;-4.472;2023-03-16T01:23:37;0.75;0.50;0.00
76238;PMS7003;65043;48.392;-4.472;2023-03-16T01:26:03;2.00;1.00;1.00
76238;PMS7003;65043;48.392;-4.472;2023-03-16T01:28:31;2.00;1.00;0.00
76238;PMS7003;65043;48.392;-4.472;2023-03-16T01:31:04;5.00;1.25;1.00
76238;PMS7003;65043;48.392;-4.472;2023-03-16T01:33:32;3.00;2.50;0.00
76238;PMS7003;65043;48.392;-4.472;2023-03-16T01:36:02;2.00;2.00;0.25
76238;PMS7003;65043;48.392;-4.472;2023-03-16T01:38:31;1.00;1.00;0.25
76238;PMS7003;65043;48.392;-4.472;2023-03-16T01:40:58;1.00;1.00;1.00
76238;PMS7003;65043;48.392;-4.472;2023-03-16T01:43:27;4.50;2.50;0.75
76238;PMS7003;65043;48.392;-4.472;2023-03-16T01:48:32;3.25;1.00;1.00
76238;PMS7003;65043;48.392;-4.472;2023-03-16T01:53:49;1.00;1.00;0.50
76238;PMS7003;65043;48.392;-4.472;2023-03-16T01:56:18;2.75;2.50;0.25
76238;PMS7003;65043;48.392;-4.472;2023-03-16T01:58:58;4.00;3.00;0.00
76238;PMS7003;65043;48.392;-4.472;2023-03-16T02:01:30;4.50;1.50;1.00
76238;PMS7003;65043;48.392;-4.472;2023-03-16T02:03:59;1.25;1.25;0.00
76238;PMS7003;65043;48.392;-4.472;2023-03-16T02:06:31;0.75;0.50;0.00
76238;PMS7003;65043;48.392;-4.472;2023-03-16T02:08:57;1.25;1.00;0.00
76238;PMS7003;65043;48.392;-4.472;2023-03-16T02:11:23;1.00;1.00;0.00
76238;PMS7003;65043;48.392;-4.472;2023-03-16T02:13:49;4.50;2.00;0.25
76238;PMS7003;65043;48.392;-4.472;2023-03-16T02:16:16;0.25;0.25;0.00
76238;PMS7003;65043;48.392;-4.472;2023-03-16T02:18:44;1.00;1.00;0.75
76238;PMS7003;65043;48.392;-4.472;2023-03-16T02:21:15;1.00;0.00;0.00
76238;PMS7003;65043;48.392;-4.472;2023-03-16T02:23:53;1.75;1.75;0.00
76238;PMS7003;65043;48.392;-4.472;2023-03-16T02:26:21;2.50;1.75;1.00
76238;PMS7003;65043;48.392;-4.472;2023-03-16T02:31:37;1.75;1.25;0.00
76238;PMS7003;65043;48.392;-4.472;2023-03-16T02:34:03;2.00;0.00;0.00
76238;PMS7003;65043;48.392;-4.472;2023-03-16T02:36:29;2.00;2.00;0.75
76238;PMS7003;65043;48.392;-4.472;2023-03-16T02:38:55;3.00;1.50;0.25
76238;PMS7003;65043;48.392;-4.472;2023-03-16T02:41:21;5.25;1.75;0.00
76238;PMS7003;65043;48.392;-4.472;2023-03-16T02:43:51;1.25;1.00;0.00
76238;PMS7003;65043;48.392;-4.472;2023-03-16T02:46:24;3.00;1.00;0.00
76238;PMS7003;65043;48.392;-4.472;2023-03-16T02:48:54;2.00;0.50;0.00
76238;PMS7003;65043;48.392;-4.472;2023-03-16T02:51:27;4.50;2.00;0.00
76238;PMS7003;65043;48.392;-4.472;2023-03-16T02:53:53;1.50;0.00;0.00
76238;PMS7003;65043;48.392;-4.472;2023-03-16T02:56:19;0.75;0.75;0.75
76238;PMS7003;65043;48.392;-4.472;2023-03-16T02:58:44;2.00;1.25;0.00
76238;PMS7003;65043;48.392;-4.472;2023-03-16T03:01:09;2.75;1.00;1.00
76238;PMS7003;65043;48.392;-4.472;2023-03-16T03:03:35;1.00;0.75;0.00
76238;PMS7003;65043;48.392;-4.472;2023-03-16T03:06:03;2.50;2.00;1.00
76238;PMS7003;65043;48.392;-4.472;2023-03-16T03:08:29;5.25;2.75;0.00
76238;PMS7003;65043;48.392;-4.472;2023-03-16T03:10:56;3.75;1.00;0.25
76238;PMS7003;65043;48.392;-4.472;2023-03-16T03:13:22;2.25;1.50;1.00
76238;PMS7003;65043;48.392;-4.472;2023-03-16T03:15:48;1.00;1.00;1.00
76238;PMS7003;65043;48.392;-4.472;2023-03-16T03:18:13;2.25;1.00;0.00
76238;PMS7003;65043;48.392;-4.472;2023-03-16T03:20:39;2.25;1.50;1.00
76238;PMS7003;65043;48.392;-4.472;2023-03-16T03:23:04;1.75;1.00;0.00
76238;PMS7003;65043;48.392;-4.472;2023-03-16T03:25:30;4.50;1.50;0.50
76238;PMS7003;65043;48.392;-4.472;2023-03-16T03:27:59;1.25;1.00;1.00
76238;PMS7003;65043;48.392;-4.472;2023-03-16T03:30:26;4.25;2.25;0.25
76238;PMS7003;65043;48.392;-4.472;2023-03-16T03:32:51;1.00;1.00;0.25
76238;PMS7003;65043;48.392;-4.472;2023-03-16T03:35:17;2.00;1.00;0.00
76238;PMS7003;65043;48.392;-4.472;2023-03-16T03:37:43;2.50;0.00;0.00
76238;PMS7003;65043;48.392;-4.472;2023-03-16T03:40:09;1.25;0.75;0.00
76238;PMS7003;65043;48.392;-4.472;2023-03-16T03:42:36;0.75;0.75;0.00
76238;PMS7003;65043;48.392;-4.472;2023-03-16T03:45:02;0.00;0.00;0.00
76238;PMS7003;65043;48.392;-4.472;2023-03-16T03:47:28;0.00;0.00;0.00
76238;PMS7003;65043;48.392;-4.472;2023-03-16T03:49:54;3.50;0.00;0.00
76238;PMS7003;65043;48.392;-4.472;2023-03-16T03:52:20;1.25;1.00;0.00
76238;PMS7003;65043;48.392;-4.472;2023-03-16T03:54:45;0.75;0.75;0.00
76238;PMS7003;65043;48.392;-4.472;2023-03-16T03:57:10;1.00;1.00;0.00
76238;PMS7003;65043;48.392;-4.472;2023-03-16T03:59:36;3.00;1.00;0.00
76238;PMS7003;65043;48.392;-4.472;2023-03-16T04:02:07;1.75;1.75;0.00
76238;PMS7003;65043;48.392;-4.472;2023-03-16T04:04:33;3.00;0.00;0.00
76238;PMS7003;65043;48.392;-4.472;2023-03-16T04:06:58;1.50;0.75;0.00
76238;PMS7003;65043;48.392;-4.472;2023-03-16T04:09:24;3.00;0.00;0.00
76238;PMS7003;65043;48.392;-4.472;2023-03-16T04:11:49;2.00;1.00;0.00
76238;PMS7003;65043;48.392;-4.472;2023-03-16T04:14:15;0.00;0.00;0.00
76238;PMS7003;65043;48.392;-4.472;2023-03-16T04:16:40;1.00;1.00;0.00
76238;PMS7003;65043;48.392;-4.472;2023-03-16T04:19:08;0.00;0.00;0.00
76238;PMS7003;65043;48.392;-4.472;2023-03-16T04:21:34;0.00;0.00;0.00
76238;PMS7003;65043;48.392;-4.472;2023-03-16T04:23:59;0.00;0.00;0.00
76238;PMS7003;65043;48.392;-4.472;2023-03-16T04:26:28;1.50;1.00;0.75
76238;PMS7003;65043;48.392;-4.472;2023-03-16T04:28:53;1.00;1.00;0.00
76238;PMS7003;65043;48.392;-4.472;2023-03-16T04:31:18;0.75;0.50;0.00
76238;PMS7003;65043;48.392;-4.472;2023-03-16T04:33:44;1.25;1.25;0.00
76238;PMS7003;65043;48.392;-4.472;2023-03-16T04:36:09;0.75;0.75;0.00
76238;PMS7003;65043;48.392;-4.472;2023-03-16T04:38:36;1.25;1.00;0.00
76238;PMS7003;65043;48.392;-4.472;2023-03-16T04:41:02;4.50;3.25;1.00
76238;PMS7003;65043;48.392;-4.472;2023-03-16T04:43:29;3.75;0.75;0.00
76238;PMS7003;65043;48.392;-4.472;2023-03-16T04:45:58;3.75;3.00;1.00
76238;PMS7003;65043;48.392;-4.472;2023-03-16T04:48:28;2.50;2.00;0.00
76238;PMS7003;65043;48.392;-4.472;2023-03-16T04:50:53;0.50;0.00;0.00
76238;PMS7003;65043;48.392;-4.472;2023-03-16T04:53:19;1.00;1.00;0.00
76238;PMS7003;65043;48.392;-4.472;2023-03-16T04:55:45;2.00;1.00;0.00
76238;PMS7003;65043;48.392;-4.472;2023-03-16T04:58:10;4.00;2.00;0.00
76238;PMS7003;65043;48.392;-4.472;2023-03-16T05:00:37;3.00;1.50;0.00
76238;PMS7003;65043;48.392;-4.472;2023-03-16T05:03:03;4.25;0.50;0.25
76238;PMS7003;65043;48.392;-4.472;2023-03-16T05:05:29;3.00;1.25;0.00
76238;PMS7003;65043;48.392;-4.472;2023-03-16T05:07:55;2.00;0.00;0.00
76238;PMS7003;65043;48.392;-4.472;2023-03-16T05:10:20;2.00;1.00;0.00
76238;PMS7003;65043;48.392;-4.472;2023-03-16T05:12:46;2.00;1.00;0.00
76238;PMS7003;65043;48.392;-4.472;2023-03-16T05:15:11;2.50;0.25;0.00
76238;PMS7003;65043;48.392;-4.472;2023-03-16T05:17:37;1.00;1.00;0.25
76238;PMS7003;65043;48.392;-4.472;2023-03-16T05:20:07;1.00;0.00;0.00
76238;PMS7003;65043;48.392;-4.472;2023-03-16T05:22:40;2.00;1.00;0.00
76238;PMS7003;65043;48.392;-4.472;2023-03-16T05:25:08;0.25;0.25;0.00
76238;PMS7003;65043;48.392;-4.472;2023-03-16T05:27:38;1.50;1.00;0.00
76238;PMS7003;65043;48.392;-4.472;2023-03-16T05:30:08;3.00;1.25;1.00
76238;PMS7003;65043;48.392;-4.472;2023-03-16T05:32:35;1.50;1.00;0.00
76238;PMS7003;65043;48.392;-4.472;2023-03-16T05:35:00;4.75;1.25;0.00
76238;PMS7003;65043;48.392;-4.472;2023-03-16T05:37:27;1.00;1.00;0.00
76238;PMS7003;65043;48.392;-4.472;2023-03-16T05:39:52;2.50;1.00;0.75
76238;PMS7003;65043;48.392;-4.472;2023-03-16T05:42:18;1.00;1.00;0.00
76238;PMS7003;65043;48.392;-4.472;2023-03-16T05:44:43;3.00;0.00;0.00
76238;PMS7003;65043;48.392;-4.472;2023-03-16T05:47:09;1.75;0.50;0.00
76238;PMS7003;65043;48.392;-4.472;2023-03-16T05:49:35;1.00;1.00;0.50
76238;PMS7003;65043;48.392;-4.472;2023-03-16T05:52:00;4.00;2.00;0.00
76238;PMS7003;65043;48.392;-4.472;2023-03-16T05:54:25;2.50;1.00;0.00
76238;PMS7003;65043;48.392;-4.472;2023-03-16T05:56:51;0.00;0.00;0.00
76238;PMS7003;65043;48.392;-4.472;2023-03-16T05:59:16;1.00;1.00;0.00
76238;PMS7003;65043;48.392;-4.472;2023-03-16T06:01:42;2.50;1.00;0.00
76238;PMS7003;65043;48.392;-4.472;2023-03-16T06:04:07;3.00;0.25;0.00
76238;PMS7003;65043;48.392;-4.472;2023-03-16T06:06:33;2.50;1.00;0.00
76238;PMS7003;65043;48.392;-4.472;2023-03-16T06:08:58;3.25;1.00;0.00
76238;PMS7003;65043;48.392;-4.472;2023-03-16T06:11:24;0.00;0.00;0.00
76238;PMS7003;65043;48.392;-4.472;2023-03-16T06:13:49;0.50;0.00;0.00
76238;PMS7003;65043;48.392;-4.472;2023-03-16T06:16:14;2.25;0.75;0.00
76238;PMS7003;65043;48.392;-4.472;2023-03-16T06:18:40;0.00;0.00;0.00
76238;PMS7003;65043;48.392;-4.472;2023-03-16T06:21:06;5.00;1.25;0.00
76238;PMS7003;65043;48.392;-4.472;2023-03-16T06:23:32;2.00;2.00;0.50
76238;PMS7003;65043;48.392;-4.472;2023-03-16T06:25:58;1.00;1.00;0.00
76238;PMS7003;65043;48.392;-4.472;2023-03-16T06:28:24;2.25;1.00;0.00
76238;PMS7003;65043;48.392;-4.472;2023-03-16T06:30:54;0.50;0.50;0.00
76238;PMS7003;65043;48.392;-4.472;2023-03-16T06:33:21;0.50;0.50;0.00
76238;PMS7003;65043;48.392;-4.472;2023-03-16T06:35:47;1.00;1.00;0.00
76238;PMS7003;65043;48.392;-4.472;2023-03-16T06:38:13;1.00;1.00;0.00
76238;PMS7003;65043;48.392;-4.472;2023-03-16T06:40:39;0.00;0.00;0.00
76238;PMS7003;65043;48.392;-4.472;2023-03-16T06:43:05;1.75;1.50;0.75
76238;PMS7003;65043;48.392;-4.472;2023-03-16T06:45:31;1.00;1.00;0.75
76238;PMS7003;65043;48.392;-4.472;2023-03-16T06:47:57;1.75;1.00;0.50
76238;PMS7003;65043;48.392;-4.472;2023-03-16T06:50:23;2.75;1.00;0.00
76238;PMS7003;65043;48.392;-4.472;2023-03-16T06:52:48;8.00;1.25;0.50
76238;PMS7003;65043;48.392;-4.472;2023-03-16T06:55:13;5.50;2.75;1.00
76238;PMS7003;65043;48.392;-4.472;2023-03-16T06:57:39;4.00;2.50;1.00
76238;PMS7003;65043;48.392;-4.472;2023-03-16T07:00:06;3.75;1.00;0.00
76238;PMS7003;65043;48.392;-4.472;2023-03-16T07:02:33;1.50;1.00;1.00
76238;PMS7003;65043;48.392;-4.472;2023-03-16T07:04:59;1.00;1.00;1.00
76238;PMS7003;65043;48.392;-4.472;2023-03-16T07:07:26;6.00;2.50;1.00
76238;PMS7003;65043;48.392;-4.472;2023-03-16T07:09:51;1.75;1.00;0.00
76238;PMS7003;65043;48.392;-4.472;2023-03-16T07:12:17;6.50;3.00;1.00
76238;PMS7003;65043;48.392;-4.472;2023-03-16T07:14:42;1.50;1.00;1.00
76238;PMS7003;65043;48.392;-4.472;2023-03-16T07:17:08;2.75;2.25;0.00
76238;PMS7003;65043;48.392;-4.472;2023-03-16T07:19:33;1.00;1.00;0.00
76238;PMS7003;65043;48.392;-4.472;2023-03-16T07:21:59;2.75;2.25;1.00
76238;PMS7003;65043;48.392;-4.472;2023-03-16T07:24:26;3.00;1.75;0.75
76238;PMS7003;65043;48.392;-4.472;2023-03-16T07:26:52;2.25;1.00;1.00
76238;PMS7003;65043;48.392;-4.472;2023-03-16T07:29:17;6.00;2.00;1.00
76238;PMS7003;65043;48.392;-4.472;2023-03-16T07:31:42;0.25;0.25;0.00
76238;PMS7003;65043;48.392;-4.472;2023-03-16T07:34:08;3.00;1.50;0.75
76238;PMS7003;65043;48.392;-4.472;2023-03-16T07:36:34;1.00;1.00;1.00
76238;PMS7003;65043;48.392;-4.472;2023-03-16T07:38:59;10.00;9.50;4.75
76238;PMS7003;65043;48.392;-4.472;2023-03-16T07:41:25;11.25;8.50;4.25
76238;PMS7003;65043;48.392;-4.472;2023-03-16T07:43:50;20.00;18.00;11.00
76238;PMS7003;65043;48.392;-4.472;2023-03-16T07:46:16;14.00;11.25;7.50
76238;PMS7003;65043;48.392;-4.472;2023-03-16T07:48:44;25.00;20.00;12.50
76238;PMS7003;65043;48.392;-4.472;2023-03-16T07:51:11;5.00;3.75;2.75
76238;PMS7003;65043;48.392;-4.472;2023-03-16T07:53:38;4.50;3.50;2.00
76238;PMS7003;65043;48.392;-4.472;2023-03-16T07:56:04;3.50;1.50;1.00
76238;PMS7003;65043;48.392;-4.472;2023-03-16T07:58:29;1.75;1.00;0.00
76238;PMS7003;65043;48.392;-4.472;2023-03-16T08:00:56;2.50;2.25;1.00
76238;PMS7003;65043;48.392;-4.472;2023-03-16T08:03:23;2.25;1.25;1.00
76238;PMS7003;65043;48.392;-4.472;2023-03-16T08:05:49;6.25;3.25;1.00
76238;PMS7003;65043;48.392;-4.472;2023-03-16T08:08:15;2.50;2.00;0.00
76238;PMS7003;65043;48.392;-4.472;2023-03-16T08:10:41;2.00;2.00;0.00
76238;PMS7003;65043;48.392;-4.472;2023-03-16T08:13:07;4.75;2.00;1.00
76238;PMS7003;65043;48.392;-4.472;2023-03-16T08:15:33;3.00;3.00;1.00
76238;PMS7003;65043;48.392;-4.472;2023-03-16T08:17:59;1.50;1.50;1.00
76238;PMS7003;65043;48.392;-4.472;2023-03-16T08:20:26;2.00;2.00;0.25
76238;PMS7003;65043;48.392;-4.472;2023-03-16T08:22:52;3.00;3.00;1.00
76238;PMS7003;65043;48.392;-4.472;2023-03-16T08:25:18;2.25;2.00;1.00
76238;PMS7003;65043;48.392;-4.472;2023-03-16T08:27:44;5.50;2.50;1.00
76238;PMS7003;65043;48.392;-4.472;2023-03-16T08:30:11;2.75;1.75;1.00
76238;PMS7003;65043;48.392;-4.472;2023-03-16T08:32:37;3.00;1.25;1.00
76238;PMS7003;65043;48.392;-4.472;2023-03-16T08:35:04;3.75;2.00;1.00
76238;PMS7003;65043;48.392;-4.472;2023-03-16T08:37:30;3.75;2.50;1.00
76238;PMS7003;65043;48.392;-4.472;2023-03-16T08:39:56;2.00;2.00;1.00
76238;PMS7003;65043;48.392;-4.472;2023-03-16T08:42:22;5.25;3.75;1.00
76238;PMS7003;65043;48.392;-4.472;2023-03-16T08:44:49;3.00;3.00;1.00
76238;PMS7003;65043;48.392;-4.472;2023-03-16T08:47:14;4.00;2.00;0.75
76238;PMS7003;65043;48.392;-4.472;2023-03-16T08:49:41;2.50;2.00;1.00
76238;PMS7003;65043;48.392;-4.472;2023-03-16T08:52:06;3.00;2.50;1.00
76238;PMS7003;65043;48.392;-4.472;2023-03-16T08:54:34;4.25;2.25;1.50
76238;PMS7003;65043;48.392;-4.472;2023-03-16T08:57:00;5.25;2.50;1.00
76238;PMS7003;65043;48.392;-4.472;2023-03-16T08:59:25;3.50;3.50;2.00
76238;PMS7003;65043;48.392;-4.472;2023-03-16T09:01:51;2.75;2.00;1.00
76238;PMS7003;65043;48.392;-4.472;2023-03-16T09:04:16;2.50;1.75;1.00
76238;PMS7003;65043;48.392;-4.472;2023-03-16T09:06:42;20.00;16.75;10.50
76238;PMS7003;65043;48.392;-4.472;2023-03-16T09:09:07;40.75;31.75;19.50
76238;PMS7003;65043;48.392;-4.472;2023-03-16T09:11:33;20.00;13.00;9.00
76238;PMS7003;65043;48.392;-4.472;2023-03-16T09:13:59;13.50;10.75;6.25
76238;PMS7003;65043;48.392;-4.472;2023-03-16T09:16:25;6.25;4.25;2.00
76238;PMS7003;65043;48.392;-4.472;2023-03-16T09:18:51;5.25;4.25;1.50
76238;PMS7003;65043;48.392;-4.472;2023-03-16T09:21:17;6.75;4.75;2.00
76238;PMS7003;65043;48.392;-4.472;2023-03-16T09:23:43;2.00;2.00;1.00
76238;PMS7003;65043;48.392;-4.472;2023-03-16T09:26:09;4.50;2.75;1.00
76238;PMS7003;65043;48.392;-4.472;2023-03-16T09:28:36;6.00;3.75;1.75
76238;PMS7003;65043;48.392;-4.472;2023-03-16T09:31:04;3.50;3.50;1.50
76238;PMS7003;65043;48.392;-4.472;2023-03-16T09:33:31;5.00;2.00;1.00
76238;PMS7003;65043;48.392;-4.472;2023-03-16T09:35:58;4.00;2.50;1.75
76238;PMS7003;65043;48.392;-4.472;2023-03-16T09:38:24;8.00;4.25;2.00
76238;PMS7003;65043;48.392;-4.472;2023-03-16T09:41:01;3.75;2.25;1.75
76238;PMS7003;65043;48.392;-4.472;2023-03-16T09:46:44;4.50;3.00;2.00
76238;PMS7003;65043;48.392;-4.472;2023-03-16T09:49:14;6.00;4.00;2.25
76238;PMS7003;65043;48.392;-4.472;2023-03-16T09:51:57;8.25;4.50;2.50
76238;PMS7003;65043;48.392;-4.472;2023-03-16T09:54:36;7.25;5.25;2.00
76238;PMS7003;65043;48.392;-4.472;2023-03-16T09:57:29;6.00;3.75;1.00
76238;PMS7003;65043;48.392;-4.472;2023-03-16T10:00:00;6.00;4.25;2.00
76238;PMS7003;65043;48.392;-4.472;2023-03-16T10:05:31;9.50;4.25;2.00
76238;PMS7003;65043;48.392;-4.472;2023-03-16T10:13:15;10.25;5.50;3.00
76238;PMS7003;65043;48.392;-4.472;2023-03-16T10:16:08;7.75;5.00;2.00
76238;PMS7003;65043;48.392;-4.472;2023-03-16T10:18:42;9.50;4.25;1.25
76238;PMS7003;65043;48.392;-4.472;2023-03-16T10:21:11;4.00;3.50;2.00
76238;PMS7003;65043;48.392;-4.472;2023-03-16T10:23:38;4.00;2.25;0.00
76238;PMS7003;65043;48.392;-4.472;2023-03-16T10:26:10;4.50;4.00;2.00
76238;PMS7003;65043;48.392;-4.472;2023-03-16T10:28:38;10.00;4.00;2.00
76238;PMS7003;65043;48.392;-4.472;2023-03-16T10:31:04;10.25;4.00;2.00
76238;PMS7003;65043;48.392;-4.472;2023-03-16T10:33:31;7.25;2.75;1.00
76238;PMS7003;65043;48.392;-4.472;2023-03-16T10:38:50;7.25;3.00;2.00
76238;PMS7003;65043;48.392;-4.472;2023-03-16T10:43:52;6.00;5.00;2.00
76238;PMS7003;65043;48.392;-4.472;2023-03-16T10:46:34;4.25;2.75;1.00
76238;PMS7003;65043;48.392;-4.472;2023-03-16T10:49:04;6.25;3.00;2.00
76238;PMS7003;65043;48.392;-4.472;2023-03-16T10:51:43;4.25;3.00;1.25
76238;PMS7003;65043;48.392;-4.472;2023-03-16T10:54:15;5.75;3.50;2.00
76238;PMS7003;65043;48.392;-4.472;2023-03-16T10:56:53;4.00;4.00;2.00
76238;PMS7003;65043;48.392;-4.472;2023-03-16T11:01:58;5.75;3.75;2.00
76238;PMS7003;65043;48.392;-4.472;2023-03-16T11:04:29;8.00;3.50;2.00
76238;PMS7003;65043;48.392;-4.472;2023-03-16T11:06:55;7.50;3.50;2.00
76238;PMS7003;65043;48.392;-4.472;2023-03-16T11:09:25;5.00;3.00;2.00
76238;PMS7003;65043;48.392;-4.472;2023-03-16T11:11:57;5.00;4.00;2.25
76238;PMS7003;65043;48.392;-4.472;2023-03-16T11:14:24;6.25;3.00;1.75
76238;PMS7003;65043;48.392;-4.472;2023-03-16T11:16:59;7.50;4.00;2.00
76238;PMS7003;65043;48.392;-4.472;2023-03-16T11:19:30;5.50;3.50;1.75
76238;PMS7003;65043;48.392;-4.472;2023-03-16T11:29:55;9.25;8.50;4.00
76238;PMS7003;65043;48.392;-4.472;2023-03-16T11:32:33;6.25;3.50;1.75
76238;PMS7003;65043;48.392;-4.472;2023-03-16T11:35:01;13.75;7.25;4.50
76238;PMS7003;65043;48.392;-4.472;2023-03-16T11:40:31;11.75;9.50;7.50
76238;PMS7003;65043;48.392;-4.472;2023-03-16T11:43:48;18.00;14.75;9.00
76238;PMS7003;65043;48.392;-4.472;2023-03-16T11:46:30;16.25;13.50;8.50
76238;PMS7003;65043;48.392;-4.472;2023-03-16T12:11:59;16.25;16.00;12.00
76238;PMS7003;65043;48.392;-4.472;2023-03-16T12:14:37;13.50;13.50;9.00
76238;PMS7003;65043;48.392;-4.472;2023-03-16T12:17:15;7.25;7.25;5.00
76238;PMS7003;65043;48.392;-4.472;2023-03-16T12:19:54;12.25;11.50;7.00
76238;PMS7003;65043;48.392;-4.472;2023-03-16T12:22:44;5.00;5.00;4.00
76238;PMS7003;65043;48.392;-4.472;2023-03-16T12:25:16;10.25;6.00;3.50
76238;PMS7003;65043;48.392;-4.472;2023-03-16T12:27:46;9.50;8.25;6.00
76238;PMS7003;65043;48.392;-4.472;2023-03-16T12:40:57;20.50;16.50;11.50
76238;PMS7003;65043;48.392;-4.472;2023-03-16T12:49:14;68.25;53.00;34.50
76238;PMS7003;65043;48.392;-4.472;2023-03-16T12:51:42;32.25;25.50;17.00
76238;PMS7003;65043;48.392;-4.472;2023-03-16T12:54:21;23.25;20.50;13.00
76238;PMS7003;65043;48.392;-4.472;2023-03-16T12:56:48;17.50;14.25;11.00
76238;PMS7003;65043;48.392;-4.472;2023-03-16T12:59:16;19.25;16.00;10.00
76238;PMS7003;65043;48.392;-4.472;2023-03-16T13:01:48;17.25;14.50;10.00
76238;PMS7003;65043;48.392;-4.472;2023-03-16T13:06:49;28.25;20.50;14.00
76238;PMS7003;65043;48.392;-4.472;2023-03-16T13:09:25;25.25;21.25;16.25
76238;PMS7003;65043;48.392;-4.472;2023-03-16T13:11:52;24.25;21.25;15.25
76238;PMS7003;65043;48.392;-4.472;2023-03-16T13:14:32;32.75;28.25;21.00
76238;PMS7003;65043;48.392;-4.472;2023-03-16T13:23:06;22.25;17.25;13.00
76238;PMS7003;65043;48.392;-4.472;2023-03-16T13:25:41;21.50;16.00;12.00
76238;PMS7003;65043;48.392;-4.472;2023-03-16T13:28:12;21.75;19.75;13.75
76238;PMS7003;65043;48.392;-4.472;2023-03-16T13:30:45;21.75;17.25;12.25
76238;PMS7003;65043;48.392;-4.472;2023-03-16T13:36:10;55.25;44.75;28.00
76238;PMS7003;65043;48.392;-4.472;2023-03-16T13:38:38;68.25;52.75;31.75
76238;PMS7003;65043;48.392;-4.472;2023-03-16T13:41:04;47.00;36.75;22.00
76238;PMS7003;65043;48.392;-4.472;2023-03-16T13:43:37;19.25;15.25;10.25
76238;PMS7003;65043;48.392;-4.472;2023-03-16T13:46:12;11.50;10.00;7.00
76238;PMS7003;65043;48.392;-4.472;2023-03-16T13:48:41;12.50;10.00;6.00
76238;PMS7003;65043;48.392;-4.472;2023-03-16T13:51:15;11.00;9.00;6.00
76238;PMS7003;65043;48.392;-4.472;2023-03-16T13:53:43;9.50;7.75;5.50
76238;PMS7003;65043;48.392;-4.472;2023-03-16T13:56:16;14.00;9.25;4.75
76238;PMS7003;65043;48.392;-4.472;2023-03-16T13:58:48;10.00;8.50;5.75
76238;PMS7003;65043;48.392;-4.472;2023-03-16T14:03:49;10.75;6.00;4.00
76238;PMS7003;65043;48.392;-4.472;2023-03-16T14:06:25;8.00;6.50;4.00
76238;PMS7003;65043;48.392;-4.472;2023-03-16T14:08:54;7.25;6.00;3.50
76238;PMS7003;65043;48.392;-4.472;2023-03-16T14:11:24;8.75;6.00;3.00
76238;PMS7003;65043;48.392;-4.472;2023-03-16T14:13:51;6.50;5.00;4.00
76238;PMS7003;65043;48.392;-4.472;2023-03-16T14:16:19;8.25;6.75;4.25
76238;PMS7003;65043;48.392;-4.472;2023-03-16T14:18:59;9.25;7.25;3.00
76238;PMS7003;65043;48.392;-4.472;2023-03-16T14:21:27;12.25;6.75;4.50
76238;PMS7003;65043;48.392;-4.472;2023-03-16T14:23:59;6.75;4.75;3.00
76238;PMS7003;65043;48.392;-4.472;2023-03-16T14:26:26;6.50;5.50;3.25
76238;PMS7003;65043;48.392;-4.472;2023-03-16T14:31:52;9.25;8.00;3.00
76238;PMS7003;65043;48.392;-4.472;2023-03-16T14:34:20;7.00;5.50;3.75
76238;PMS7003;65043;48.392;-4.472;2023-03-16T14:37:03;7.25;4.50;3.00
76238;PMS7003;65043;48.392;-4.472;2023-03-16T14:39:34;4.75;4.75;3.00
76238;PMS7003;65043;48.392;-4.472;2023-03-16T14:42:03;5.75;4.00;2.75
76238;PMS7003;65043;48.392;-4.472;2023-03-16T14:44:31;9.25;6.75;3.75
76238;PMS7003;65043;48.392;-4.472;2023-03-16T14:47:00;4.00;4.00;3.00
76238;PMS7003;65043;48.392;-4.472;2023-03-16T14:49:37;7.25;3.00;2.00
76238;PMS7003;65043;48.392;-4.472;2023-03-16T14:52:05;6.25;2.00;1.00
76238;PMS7003;65043;48.392;-4.472;2023-03-16T14:54:37;3.00;2.25;1.75
76238;PMS7003;65043;48.392;-4.472;2023-03-16T14:57:03;4.75;3.00;1.75
76238;PMS7003;65043;48.392;-4.472;2023-03-16T14:59:30;3.75;2.75;2.00
76238;PMS7003;65043;48.392;-4.472;2023-03-16T15:01:59;2.00;2.00;1.00
76238;PMS7003;65043;48.392;-4.472;2023-03-16T15:04:31;3.75;2.00;1.50
76238;PMS7003;65043;48.392;-4.472;2023-03-16T15:06:59;2.00;2.00;2.00
76238;PMS7003;65043;48.392;-4.472;2023-03-16T15:11:59;3.25;2.25;1.00
76238;PMS7003;65043;48.392;-4.472;2023-03-16T15:14:25;5.00;3.00;2.00
76238;PMS7003;65043;48.392;-4.472;2023-03-16T15:17:09;7.50;4.00;2.00
76238;PMS7003;65043;48.392;-4.472;2023-03-16T15:19:35;3.00;3.00;1.00
76238;PMS7003;65043;48.392;-4.472;2023-03-16T15:22:01;2.75;2.75;2.00
76238;PMS7003;65043;48.392;-4.472;2023-03-16T15:24:27;3.00;2.50;1.75
76238;PMS7003;65043;48.392;-4.472;2023-03-16T15:26:55;2.25;2.25;2.00
76238;PMS7003;65043;48.392;-4.472;2023-03-16T15:29:20;5.25;4.00;2.50
76238;PMS7003;65043;48.392;-4.472;2023-03-16T15:31:46;5.00;3.50;2.00
76238;PMS7003;65043;48.392;-4.472;2023-03-16T15:34:12;2.00;2.00;1.00
76238;PMS7003;65043;48.392;-4.472;2023-03-16T15:36:37;1.50;1.50;1.00
76238;PMS7003;65043;48.392;-4.472;2023-03-16T15:39:03;6.25;3.00;2.00
76238;PMS7003;65043;48.392;-4.472;2023-03-16T15:41:29;3.00;2.25;2.00
76238;PMS7003;65043;48.392;-4.472;2023-03-16T15:43:54;2.50;2.00;1.25
76238;PMS7003;65043;48.392;-4.472;2023-03-16T15:46:24;2.00;2.00;1.75
76238;PMS7003;65043;48.392;-4.472;2023-03-16T15:48:51;2.50;1.75;1.25